createdAt,value
2022-10-23T00:02:22.557Z,14.30
2022-10-23T00:04:53.729Z,14.30
2022-10-23T00:07:21.724Z,14.30
2022-10-23T00:09:49.613Z,14.30
2022-10-23T00:12:17.528Z,14.30
2022-10-23T00:14:45.394Z,14.20
2022-10-23T00:17:13.642Z,14.20
2022-10-23T00:19:41.521Z,14.20
2022-10-23T00:22:11.240Z,14.20
2022-10-23T00:24:39.259Z,14.20
2022-10-23T00:27:07.252Z,14.20
2022-10-23T00:29:35.163Z,14.10
2022-10-23T00:32:03.110Z,14.10
2022-10-23T00:34:31.028Z,14.10
2022-10-23T00:36:58.905Z,14.10
2022-10-23T00:39:28.260Z,14.10
2022-10-23T00:41:56.209Z,14.10
2022-10-23T00:45:01.448Z,14.10
2022-10-23T00:47:29.224Z,14.10
2022-10-23T00:49:57.206Z,14.00
2022-10-23T00:52:25.130Z,13.90
2022-10-23T00:54:54.432Z,13.90
2022-10-23T00:57:22.490Z,13.90
2022-10-23T00:59:50.465Z,13.90
2022-10-23T01:02:18.527Z,14.00
2022-10-23T01:04:46.573Z,13.90
2022-10-23T01:07:19.601Z,13.90
2022-10-23T01:09:52.802Z,13.90
2022-10-23T01:12:29.851Z,13.90
2022-10-23T01:15:06.775Z,13.90
2022-10-23T01:17:42.486Z,13.90
2022-10-23T01:20:23.515Z,13.90
2022-10-23T01:23:16.367Z,13.90
2022-10-23T01:26:23.604Z,13.90
2022-10-23T01:28:57.879Z,13.90
2022-10-23T01:31:31.109Z,13.90
2022-10-23T01:34:04.737Z,13.90
2022-10-23T01:36:34.803Z,13.90
2022-10-23T01:39:07.939Z,13.90
2022-10-23T01:41:40.516Z,13.90
2022-10-23T01:44:15.549Z,13.90
2022-10-23T01:46:45.362Z,13.90
2022-10-23T01:49:15.021Z,13.80
2022-10-23T01:51:47.019Z,13.80
2022-10-23T01:54:17.862Z,13.80
2022-10-23T01:56:49.615Z,13.80
2022-10-23T01:59:23.541Z,13.80
2022-10-23T02:01:54.781Z,13.80
2022-10-23T02:04:28.327Z,13.80
2022-10-23T02:06:56.363Z,13.80
2022-10-23T02:09:24.540Z,13.80
2022-10-23T02:11:57.890Z,13.80
2022-10-23T02:14:38.570Z,13.80
2022-10-23T02:17:16.044Z,13.80
2022-10-23T02:19:49.981Z,13.80
2022-10-23T02:22:22.718Z,13.80
2022-10-23T02:24:53.409Z,13.70
2022-10-23T02:27:27.025Z,13.70
2022-10-23T02:30:01.126Z,13.70
2022-10-23T02:32:30.641Z,13.70
2022-10-23T02:34:58.642Z,13.70
2022-10-23T02:37:27.087Z,13.70
2022-10-23T02:39:55.925Z,13.70
2022-10-23T02:42:29.112Z,13.70
2022-10-23T02:45:06.035Z,13.70
2022-10-23T02:47:48.059Z,13.70
2022-10-23T02:50:27.056Z,13.60
2022-10-23T02:53:05.494Z,13.60
2022-10-23T02:55:45.632Z,13.70
2022-10-23T02:58:21.705Z,13.60
2022-10-23T03:00:55.760Z,13.60
2022-10-23T03:03:25.388Z,13.60
2022-10-23T03:05:53.770Z,13.50
2022-10-23T03:08:21.603Z,13.50
2022-10-23T03:10:49.555Z,13.50
2022-10-23T03:13:17.451Z,13.50
2022-10-23T03:15:45.755Z,13.50
2022-10-23T03:18:15.041Z,13.50
2022-10-23T03:20:42.973Z,13.50
2022-10-23T03:23:13.826Z,13.50
2022-10-23T03:25:41.681Z,13.50
2022-10-23T03:28:09.564Z,13.50
2022-10-23T03:30:37.463Z,13.50
2022-10-23T03:33:05.427Z,13.50
2022-10-23T03:35:34.597Z,13.50
2022-10-23T03:38:02.510Z,13.50
2022-10-23T03:40:30.485Z,13.50
2022-10-23T03:42:58.679Z,13.50
2022-10-23T03:45:26.696Z,13.60
2022-10-23T03:47:54.631Z,13.60
2022-10-23T03:50:22.470Z,13.60
2022-10-23T03:52:51.846Z,13.60
2022-10-23T03:55:19.941Z,13.60
2022-10-23T03:57:47.804Z,13.60
2022-10-23T04:00:15.927Z,13.60
2022-10-23T04:02:44.260Z,13.60
2022-10-23T04:05:12.655Z,13.60
2022-10-23T04:07:40.641Z,13.60
2022-10-23T04:10:10.823Z,13.60
2022-10-23T04:12:38.780Z,13.60
2022-10-23T04:15:07.255Z,13.60
2022-10-23T04:17:35.153Z,13.60
2022-10-23T04:20:03.140Z,13.60
2022-10-23T04:22:31.035Z,13.60
2022-10-23T04:24:58.887Z,13.60
2022-10-23T04:27:28.158Z,13.60
2022-10-23T04:29:58.357Z,13.70
2022-10-23T04:32:27.414Z,13.70
2022-10-23T04:34:55.292Z,13.70
2022-10-23T04:37:23.208Z,13.70
2022-10-23T04:39:51.073Z,13.70
2022-10-23T04:42:19.071Z,13.70
2022-10-23T04:44:48.400Z,13.70
2022-10-23T04:47:16.272Z,13.70
2022-10-23T04:49:44.370Z,13.70
2022-10-23T04:52:12.229Z,13.70
2022-10-23T04:54:40.681Z,13.70
2022-10-23T04:57:08.743Z,13.70
2022-10-23T04:59:36.783Z,13.70
2022-10-23T05:02:06.492Z,13.70
2022-10-23T05:04:34.353Z,13.70
2022-10-23T05:07:02.551Z,13.80
2022-10-23T05:09:30.428Z,13.80
2022-10-23T05:11:58.268Z,13.80
2022-10-23T05:14:26.188Z,13.80
2022-10-23T05:16:59.178Z,13.80
2022-10-23T05:19:33.985Z,13.90
2022-10-23T05:22:02.618Z,13.90
2022-10-23T05:24:30.847Z,13.90
2022-10-23T05:26:58.902Z,13.90
2022-10-23T05:29:26.777Z,13.90
2022-10-23T05:32:00.040Z,14.00
2022-10-23T05:34:31.337Z,14.00
2022-10-23T05:36:59.288Z,14.00
2022-10-23T05:39:27.481Z,14.10
2022-10-23T05:41:56.135Z,14.10
2022-10-23T05:44:24.075Z,14.10
2022-10-23T05:46:52.042Z,14.20
2022-10-23T05:49:19.937Z,14.20
2022-10-23T05:51:49.121Z,14.20
2022-10-23T05:54:16.984Z,14.20
2022-10-23T05:56:44.843Z,14.30
2022-10-23T05:59:12.734Z,14.30
2022-10-23T06:01:40.707Z,14.30
2022-10-23T06:04:08.752Z,14.30
2022-10-23T06:06:37.378Z,14.30
2022-10-23T06:09:06.996Z,14.30
2022-10-23T06:11:34.942Z,14.40
2022-10-23T06:14:02.904Z,14.40
2022-10-23T06:16:30.929Z,14.40
2022-10-23T06:18:58.868Z,14.40
2022-10-23T06:21:26.834Z,14.50
2022-10-23T06:23:55.777Z,14.50
2022-10-23T06:26:25.065Z,14.50
2022-10-23T06:28:52.944Z,14.50
2022-10-23T06:31:26.505Z,14.50
2022-10-23T06:33:54.805Z,14.50
2022-10-23T06:36:22.774Z,14.50
2022-10-23T06:38:52.112Z,14.50
2022-10-23T06:41:22.582Z,14.50
2022-10-23T06:43:53.346Z,14.60
2022-10-23T06:46:21.277Z,14.60
2022-10-23T06:48:49.193Z,14.60
2022-10-23T06:51:18.445Z,14.60
2022-10-23T06:53:46.725Z,14.60
2022-10-23T06:56:17.075Z,14.60
2022-10-23T06:58:44.964Z,14.60
2022-10-23T07:01:16.311Z,14.60
2022-10-23T07:03:45.029Z,14.60
2022-10-23T07:06:13.259Z,14.70
2022-10-23T07:08:41.484Z,14.70
2022-10-23T07:11:11.580Z,14.70
2022-10-23T07:13:40.559Z,14.70
2022-10-23T07:16:15.528Z,14.70
2022-10-23T07:18:44.104Z,14.70
2022-10-23T07:21:12.010Z,14.70
2022-10-23T07:23:40.366Z,14.70
2022-10-23T07:26:09.989Z,14.70
2022-10-23T07:28:38.006Z,14.80
2022-10-23T07:31:06.230Z,14.80
2022-10-23T07:33:35.733Z,14.80
2022-10-23T07:36:06.067Z,14.80
2022-10-23T07:38:34.368Z,14.90
2022-10-23T07:41:03.459Z,14.90
2022-10-23T07:46:00.481Z,14.90
2022-10-23T07:48:28.810Z,15.00
2022-10-23T07:51:01.922Z,15.00
2022-10-23T07:53:30.537Z,15.00
2022-10-23T07:56:00.032Z,15.00
2022-10-23T07:58:29.226Z,15.00
2022-10-23T08:00:58.948Z,15.10
2022-10-23T08:03:27.492Z,15.10
2022-10-23T08:05:56.199Z,15.10
2022-10-23T08:08:26.143Z,15.10
2022-10-23T08:10:56.202Z,15.20
2022-10-23T08:13:24.664Z,15.20
2022-10-23T08:15:53.462Z,15.20
2022-10-23T08:18:21.461Z,15.30
2022-10-23T08:20:52.417Z,15.20
2022-10-23T08:23:20.935Z,15.30
2022-10-23T08:25:50.282Z,15.30
2022-10-23T08:28:18.180Z,15.30
2022-10-23T08:30:46.379Z,15.40
2022-10-23T08:33:14.278Z,15.40
2022-10-23T08:35:42.212Z,15.40
2022-10-23T08:38:11.588Z,15.50
2022-10-23T08:40:40.083Z,15.50
2022-10-23T08:43:17.229Z,15.50
2022-10-23T08:45:48.514Z,15.60
2022-10-23T08:48:23.682Z,15.60
2022-10-23T08:50:55.305Z,15.60
2022-10-23T08:53:30.851Z,15.70
2022-10-23T08:56:03.702Z,15.70
2022-10-23T08:58:37.980Z,15.70
2022-10-23T09:01:19.616Z,15.70
2022-10-23T09:03:47.582Z,15.80
2022-10-23T09:06:26.361Z,15.70
2022-10-23T09:09:01.545Z,15.80
2022-10-23T09:11:37.391Z,15.80
2022-10-23T09:14:35.866Z,15.90
2022-10-23T09:17:15.703Z,16.00
2022-10-23T09:19:46.558Z,16.00
2022-10-23T09:22:15.025Z,16.10
2022-10-23T09:24:44.643Z,16.10
2022-10-23T09:27:16.896Z,16.20
2022-10-23T09:29:51.347Z,16.20
2022-10-23T09:32:20.944Z,16.20
2022-10-23T09:34:54.348Z,16.30
2022-10-23T09:37:25.430Z,16.30
2022-10-23T09:40:05.023Z,16.30
2022-10-23T09:42:32.913Z,16.40
2022-10-23T09:45:02.128Z,16.40
2022-10-23T09:47:30.033Z,16.40
2022-10-23T09:49:58.773Z,16.40
2022-10-23T09:52:33.250Z,16.40
2022-10-23T09:55:03.194Z,16.40
2022-10-23T09:57:33.783Z,16.50
2022-10-23T10:00:07.637Z,16.50
2022-10-23T10:02:38.147Z,16.50
2022-10-23T10:05:23.702Z,16.50
2022-10-23T10:07:58.329Z,16.50
2022-10-23T10:10:30.788Z,16.50
2022-10-23T10:13:02.915Z,16.50
2022-10-23T10:15:36.440Z,16.60
2022-10-23T10:18:14.155Z,16.60
2022-10-23T10:21:02.158Z,16.60
2022-10-23T10:23:39.522Z,16.70
2022-10-23T10:26:19.624Z,16.70
2022-10-23T10:29:01.326Z,16.70
2022-10-23T10:31:40.998Z,16.70
2022-10-23T10:34:18.075Z,16.80
2022-10-23T10:36:53.989Z,16.80
2022-10-23T10:39:42.027Z,16.90
2022-10-23T10:42:31.105Z,16.90
2022-10-23T10:45:13.837Z,17.00
2022-10-23T10:47:53.847Z,17.00
2022-10-23T10:50:27.416Z,17.10
2022-10-23T10:53:04.475Z,17.10
2022-10-23T10:55:37.875Z,17.20
2022-10-23T10:58:14.752Z,17.30
2022-10-23T11:00:43.986Z,17.40
2022-10-23T11:03:26.247Z,17.40
2022-10-23T11:05:57.014Z,17.50
2022-10-23T11:08:40.248Z,17.50
2022-10-23T11:11:22.025Z,17.60
2022-10-23T11:13:53.258Z,17.60
2022-10-23T11:16:24.650Z,17.60
2022-10-23T11:19:07.523Z,17.70
2022-10-23T11:21:44.140Z,17.70
2022-10-23T11:24:39.464Z,17.70
2022-10-23T11:27:29.059Z,17.80
2022-10-23T11:30:13.590Z,17.80
2022-10-23T11:32:53.301Z,17.80
2022-10-23T11:35:33.992Z,17.80
2022-10-23T11:38:15.775Z,17.80
2022-10-23T11:40:46.430Z,17.90
2022-10-23T11:43:14.548Z,17.90
2022-10-23T11:45:42.645Z,17.90
2022-10-23T11:48:23.392Z,18.00
2022-10-23T11:50:56.455Z,18.10
2022-10-23T11:53:28.902Z,18.10
2022-10-23T11:55:59.683Z,18.10
2022-10-23T11:58:32.036Z,18.20
2022-10-23T12:01:03.847Z,18.30
2022-10-23T12:03:51.807Z,18.30
2022-10-23T12:06:25.966Z,18.30
2022-10-23T12:08:57.459Z,18.40
2022-10-23T12:11:41.245Z,18.40
2022-10-23T12:14:27.690Z,18.40
2022-10-23T12:16:55.711Z,18.50
2022-10-23T12:19:26.062Z,18.50
2022-10-23T12:21:58.624Z,18.50
2022-10-23T12:24:56.652Z,18.60
2022-10-23T12:27:32.913Z,18.70
2022-10-23T12:30:13.859Z,18.70
2022-10-23T12:33:11.744Z,18.70
2022-10-23T12:35:56.108Z,18.70
2022-10-23T12:38:31.331Z,18.80
2022-10-23T12:41:07.117Z,18.80
2022-10-23T12:43:38.692Z,18.80
2022-10-23T12:46:22.277Z,18.90
2022-10-23T12:48:51.757Z,18.90
2022-10-23T12:51:25.197Z,18.90
2022-10-23T12:53:54.455Z,18.90
2022-10-23T12:56:23.043Z,18.90
2022-10-23T12:58:53.261Z,19.00
2022-10-23T13:01:27.465Z,19.00
2022-10-23T13:03:58.564Z,19.10
2022-10-23T13:06:27.764Z,19.10
2022-10-23T13:08:58.236Z,19.00
2022-10-23T13:11:27.598Z,19.00
2022-10-23T13:13:55.645Z,19.10
2022-10-23T13:16:25.194Z,19.10
2022-10-23T13:18:54.181Z,19.20
2022-10-23T13:21:24.167Z,19.20
2022-10-23T13:23:52.555Z,19.20
2022-10-23T13:26:32.912Z,19.20
2022-10-23T13:29:06.065Z,19.30
2022-10-23T13:31:37.411Z,19.30
2022-10-23T13:34:19.559Z,19.30
2022-10-23T13:36:57.560Z,19.30
2022-10-23T13:39:27.528Z,19.30
2022-10-23T13:41:56.879Z,19.30
2022-10-23T13:44:26.415Z,19.40
2022-10-23T13:46:54.609Z,19.40
2022-10-23T13:49:22.488Z,19.40
2022-10-23T13:51:52.484Z,19.40
2022-10-23T13:54:22.247Z,19.40
2022-10-23T13:56:50.333Z,19.40
2022-10-23T13:59:20.340Z,19.40
2022-10-23T14:01:50.319Z,19.50
2022-10-23T14:04:19.365Z,19.50
2022-10-23T14:06:47.663Z,19.50
2022-10-23T14:09:17.431Z,19.50
2022-10-23T14:11:45.949Z,19.50
2022-10-23T14:14:13.929Z,19.50
2022-10-23T14:16:43.159Z,19.50
2022-10-23T14:19:12.163Z,19.50
2022-10-23T14:21:40.421Z,19.50
2022-10-23T14:24:09.769Z,19.50
2022-10-23T14:26:38.170Z,19.50
2022-10-23T14:29:09.951Z,19.50
2022-10-23T14:31:39.366Z,19.50
2022-10-23T14:34:09.293Z,19.50
2022-10-23T14:36:49.403Z,19.50
2022-10-23T14:39:24.769Z,19.50
2022-10-23T14:41:52.750Z,19.50
2022-10-23T14:44:20.739Z,19.50
2022-10-23T14:46:48.587Z,19.40
2022-10-23T14:49:17.838Z,19.40
2022-10-23T14:51:45.931Z,19.50
2022-10-23T14:54:13.822Z,19.50
2022-10-23T14:56:41.692Z,19.40
2022-10-23T14:59:10.878Z,19.40
2022-10-23T15:01:43.818Z,19.40
2022-10-23T15:04:15.022Z,19.40
2022-10-23T15:06:46.324Z,19.40
2022-10-23T15:09:14.488Z,19.40
2022-10-23T15:11:42.589Z,19.30
2022-10-23T15:14:10.458Z,19.30
2022-10-23T15:16:41.537Z,19.30
2022-10-23T15:19:13.563Z,19.30
2022-10-23T15:21:46.589Z,19.20
2022-10-23T15:24:14.794Z,19.20
2022-10-23T15:26:43.408Z,19.20
2022-10-23T15:29:12.200Z,19.20
2022-10-23T15:31:45.827Z,19.10
2022-10-23T15:34:16.569Z,19.10
2022-10-23T15:36:47.206Z,19.00
2022-10-23T15:39:17.820Z,19.00
2022-10-23T15:41:45.963Z,19.00
2022-10-23T15:44:17.045Z,18.90
2022-10-23T15:46:45.287Z,18.90
2022-10-23T15:49:13.912Z,18.90
2022-10-23T15:51:43.137Z,18.90
2022-10-23T15:54:16.515Z,18.80
2022-10-23T15:56:44.678Z,18.80
2022-10-23T15:59:12.901Z,18.80
2022-10-23T16:01:40.987Z,18.70
2022-10-23T16:04:09.165Z,18.70
2022-10-23T16:06:37.117Z,18.70
2022-10-23T16:09:05.130Z,18.70
2022-10-23T16:11:37.007Z,18.60
2022-10-23T16:14:05.865Z,18.60
2022-10-23T16:16:34.600Z,18.60
2022-10-23T16:19:03.807Z,18.60
2022-10-23T16:21:33.943Z,18.50
2022-10-23T16:24:03.346Z,18.50
2022-10-23T16:26:31.960Z,18.50
2022-10-23T16:29:03.481Z,18.50
2022-10-23T16:31:31.541Z,18.50
2022-10-23T16:34:00.775Z,18.40
2022-10-23T16:36:29.475Z,18.40
2022-10-23T16:38:57.462Z,18.40
2022-10-23T16:41:25.361Z,18.40
2022-10-23T16:43:53.311Z,18.40
2022-10-23T16:46:23.259Z,18.30
2022-10-23T16:48:54.313Z,18.30
2022-10-23T16:51:24.515Z,18.30
2022-10-23T16:53:53.593Z,18.30
2022-10-23T16:56:23.969Z,18.30
2022-10-23T16:58:51.994Z,18.30
2022-10-23T17:01:23.165Z,18.20
2022-10-23T17:03:53.010Z,18.20
2022-10-23T17:06:23.212Z,18.20
2022-10-23T17:08:51.455Z,18.20
2022-10-23T17:11:21.512Z,18.10
2022-10-23T17:13:55.182Z,18.10
2022-10-23T17:16:29.922Z,18.10
2022-10-23T17:18:58.253Z,18.10
2022-10-23T17:21:26.130Z,18.10
2022-10-23T17:23:54.099Z,18.10
2022-10-23T17:26:23.221Z,18.10
2022-10-23T17:28:51.168Z,18.10
2022-10-23T17:31:21.371Z,18.00
2022-10-23T17:33:53.512Z,18.00
2022-10-23T17:36:22.741Z,18.00
2022-10-23T17:38:51.125Z,18.00
2022-10-23T17:41:21.864Z,18.00
2022-10-23T17:43:50.353Z,18.00
2022-10-23T17:46:19.180Z,17.90
2022-10-23T17:48:47.094Z,17.90
2022-10-23T17:51:19.692Z,17.90
2022-10-23T17:53:49.249Z,18.00
2022-10-23T17:56:20.226Z,17.90
2022-10-23T17:58:48.218Z,17.90
2022-10-23T18:01:17.933Z,17.90
2022-10-23T18:03:46.095Z,18.00
2022-10-23T18:06:17.709Z,17.90
2022-10-23T18:08:46.414Z,18.00
2022-10-23T18:11:17.024Z,18.00
2022-10-23T18:13:45.071Z,18.00
2022-10-23T18:16:13.474Z,18.00
2022-10-23T18:18:43.179Z,18.00
2022-10-23T18:21:11.950Z,18.00
2022-10-23T18:23:41.162Z,18.00
2022-10-23T18:26:16.697Z,18.00
2022-10-23T18:28:45.117Z,18.00
2022-10-23T18:31:14.704Z,18.00
2022-10-23T18:33:42.674Z,18.00
2022-10-23T18:36:15.717Z,18.00
2022-10-23T18:38:45.093Z,18.10
2022-10-23T18:41:13.128Z,18.00
2022-10-23T18:43:44.155Z,18.10
2022-10-23T18:46:12.658Z,18.00
2022-10-23T18:48:40.928Z,18.10
2022-10-23T18:51:15.785Z,18.10
2022-10-23T18:53:46.933Z,18.10
2022-10-23T18:56:16.052Z,18.10
2022-10-23T18:58:44.025Z,18.10
2022-10-23T19:01:12.000Z,18.10
2022-10-23T19:03:39.981Z,18.10
2022-10-23T19:06:08.704Z,18.10
2022-10-23T19:08:37.673Z,18.10
2022-10-23T19:11:08.082Z,18.10
2022-10-23T19:13:39.141Z,18.10
2022-10-23T19:16:09.843Z,18.10
2022-10-23T19:18:39.761Z,18.20
2022-10-23T19:21:07.868Z,18.20
2022-10-23T19:23:38.354Z,18.20
2022-10-23T19:26:12.011Z,18.20
2022-10-23T19:28:42.457Z,18.20
2022-10-23T19:31:11.384Z,18.20
2022-10-23T19:33:39.930Z,18.20
2022-10-23T19:36:12.583Z,18.20
2022-10-23T19:38:42.273Z,18.20
2022-10-23T19:41:19.965Z,18.20
2022-10-23T19:43:47.920Z,18.10
2022-10-23T19:46:16.221Z,18.10
2022-10-23T19:48:45.010Z,18.00
2022-10-23T19:51:14.099Z,18.00
2022-10-23T19:53:42.723Z,18.00
2022-10-23T19:56:13.041Z,17.90
2022-10-23T19:58:43.046Z,17.90
2022-10-23T20:01:12.952Z,17.90
2022-10-23T20:03:42.263Z,17.80
2022-10-23T20:06:11.435Z,17.80
2022-10-23T20:08:40.099Z,17.80
2022-10-23T20:11:09.015Z,17.80
2022-10-23T20:13:37.222Z,17.70
2022-10-23T20:16:07.151Z,17.70
2022-10-23T20:18:35.785Z,17.70
2022-10-23T20:21:03.829Z,17.60
2022-10-23T20:23:31.832Z,17.60
2022-10-23T20:26:06.451Z,17.60
2022-10-23T20:28:35.109Z,17.50
2022-10-23T20:31:08.441Z,17.50
2022-10-23T20:33:36.917Z,17.50
2022-10-23T20:36:05.880Z,17.50
2022-10-23T20:38:33.889Z,17.40
2022-10-23T20:41:05.676Z,17.40
2022-10-23T20:43:34.777Z,17.40
2022-10-23T20:46:05.012Z,17.40
2022-10-23T20:48:36.435Z,17.30
2022-10-23T20:51:04.846Z,17.30
2022-10-23T20:53:33.390Z,17.20
2022-10-23T20:56:01.452Z,17.20
2022-10-23T20:58:29.334Z,17.20
2022-10-23T21:00:58.116Z,17.10
2022-10-23T21:03:26.387Z,17.10
2022-10-23T21:05:56.178Z,17.10
2022-10-23T21:08:24.199Z,17.10
2022-10-23T21:10:52.376Z,17.00
2022-10-23T21:13:20.251Z,17.00
2022-10-23T21:15:50.509Z,17.00
2022-10-23T21:18:34.170Z,17.00
2022-10-23T21:21:08.126Z,17.00
2022-10-23T21:23:36.774Z,16.90
2022-10-23T21:26:07.619Z,16.90
2022-10-23T21:28:35.837Z,16.90
2022-10-23T21:31:04.766Z,16.90
2022-10-23T21:33:32.955Z,16.90
2022-10-23T21:36:13.747Z,16.90
2022-10-23T21:38:43.720Z,16.90
2022-10-23T21:41:14.406Z,16.90
2022-10-23T21:43:42.645Z,16.90
2022-10-23T21:46:13.813Z,16.90
2022-10-23T21:48:42.665Z,16.90
2022-10-23T21:51:14.655Z,16.90
2022-10-23T21:53:43.894Z,16.90
2022-10-23T21:56:22.856Z,16.90
2022-10-23T21:58:52.008Z,16.90
2022-10-23T22:01:20.098Z,16.90
2022-10-23T22:03:48.559Z,16.90
2022-10-23T22:06:19.284Z,16.90
2022-10-23T22:08:48.683Z,16.90
2022-10-23T22:11:17.074Z,16.90
2022-10-23T22:13:45.802Z,16.90
2022-10-23T22:16:16.476Z,16.90
2022-10-23T22:18:45.270Z,17.00
2022-10-23T22:21:16.644Z,17.00
2022-10-23T22:23:45.423Z,17.00
2022-10-23T22:26:22.123Z,16.90
2022-10-23T22:28:50.656Z,17.00
2022-10-23T22:31:21.570Z,16.90
2022-10-23T22:33:49.732Z,16.90
2022-10-23T22:36:17.872Z,16.90
2022-10-23T22:38:46.347Z,16.90
2022-10-23T22:41:15.261Z,16.90
2022-10-23T22:43:44.565Z,16.90
2022-10-23T22:46:14.849Z,16.90
2022-10-23T22:48:43.365Z,16.80
2022-10-23T22:51:12.858Z,16.80
2022-10-23T22:53:40.847Z,16.80
2022-10-23T22:56:12.012Z,16.80
2022-10-23T22:58:39.987Z,16.80
2022-10-23T23:01:13.859Z,16.80
2022-10-23T23:03:42.429Z,16.80
2022-10-23T23:06:10.807Z,16.80
2022-10-23T23:08:41.009Z,16.80
2022-10-23T23:11:10.234Z,16.80
2022-10-23T23:13:38.818Z,16.80
2022-10-23T23:16:07.577Z,16.80
2022-10-23T23:18:36.937Z,16.80
2022-10-23T23:21:06.142Z,16.80
2022-10-23T23:23:34.047Z,16.80
2022-10-23T23:26:05.805Z,16.80
2022-10-23T23:28:34.271Z,16.80
2022-10-23T23:31:07.612Z,16.80
2022-10-23T23:33:37.335Z,16.80
2022-10-23T23:36:08.299Z,16.80
2022-10-23T23:38:37.227Z,16.70
2022-10-23T23:41:06.373Z,16.70
2022-10-23T23:43:34.551Z,16.70
2022-10-23T23:46:02.470Z,16.70
2022-10-23T23:48:31.369Z,16.70
2022-10-23T23:51:00.907Z,16.70
2022-10-23T23:53:28.852Z,16.70
2022-10-23T23:55:58.284Z,16.70
2022-10-23T23:58:26.325Z,16.70
